sensor_id;sensor_type;location;lat;lon;timestamp;P1;durP1;ratioP1;P2;durP2;ratioP2
7383;SDS011;3733;47.994;8.820;2022-10-19T00:00:59;9.73;;;5.30;;
7383;SDS011;3733;47.994;8.820;2022-10-19T00:03:27;8.33;;;4.93;;
7383;SDS011;3733;47.994;8.820;2022-10-19T00:05:52;10.83;;;5.30;;
7383;SDS011;3733;47.994;8.820;2022-10-19T00:08:18;8.63;;;5.57;;
7383;SDS011;3733;47.994;8.820;2022-10-19T00:10:43;13.60;;;6.07;;
7383;SDS011;3733;47.994;8.820;2022-10-19T00:13:09;9.50;;;5.90;;
7383;SDS011;3733;47.994;8.820;2022-10-19T00:15:38;10.23;;;5.30;;
7383;SDS011;3733;47.994;8.820;2022-10-19T00:18:04;6.97;;;5.00;;
7383;SDS011;3733;47.994;8.820;2022-10-19T00:20:31;11.10;;;5.57;;
7383;SDS011;3733;47.994;8.820;2022-10-19T00:22:57;9.10;;;5.20;;
7383;SDS011;3733;47.994;8.820;2022-10-19T00:25:22;7.93;;;5.10;;
7383;SDS011;3733;47.994;8.820;2022-10-19T00:27:48;8.30;;;5.47;;
7383;SDS011;3733;47.994;8.820;2022-10-19T00:30:15;9.93;;;5.83;;
7383;SDS011;3733;47.994;8.820;2022-10-19T00:32:40;11.53;;;5.37;;
7383;SDS011;3733;47.994;8.820;2022-10-19T00:35:06;11.80;;;5.93;;
7383;SDS011;3733;47.994;8.820;2022-10-19T00:37:32;12.97;;;6.17;;
7383;SDS011;3733;47.994;8.820;2022-10-19T00:39:58;13.37;;;5.63;;
7383;SDS011;3733;47.994;8.820;2022-10-19T00:42:23;8.63;;;5.77;;
7383;SDS011;3733;47.994;8.820;2022-10-19T00:47:14;8.53;;;5.43;;
7383;SDS011;3733;47.994;8.820;2022-10-19T00:49:43;13.90;;;6.50;;
7383;SDS011;3733;47.994;8.820;2022-10-19T00:52:12;16.47;;;6.07;;
7383;SDS011;3733;47.994;8.820;2022-10-19T00:54:42;14.30;;;6.37;;
7383;SDS011;3733;47.994;8.820;2022-10-19T00:57:10;9.80;;;5.70;;
7383;SDS011;3733;47.994;8.820;2022-10-19T00:59:36;18.20;;;6.10;;
7383;SDS011;3733;47.994;8.820;2022-10-19T01:02:04;14.23;;;7.13;;
7383;SDS011;3733;47.994;8.820;2022-10-19T01:04:31;16.43;;;6.63;;
7383;SDS011;3733;47.994;8.820;2022-10-19T01:07:00;13.40;;;6.47;;
7383;SDS011;3733;47.994;8.820;2022-10-19T01:09:28;10.30;;;6.50;;
7383;SDS011;3733;47.994;8.820;2022-10-19T01:12:03;10.37;;;6.87;;
7383;SDS011;3733;47.994;8.820;2022-10-19T01:23:15;10.00;;;6.97;;
7383;SDS011;3733;47.994;8.820;2022-10-19T01:34:24;8.93;;;6.70;;
7383;SDS011;3733;47.994;8.820;2022-10-19T01:36:59;8.17;;;6.13;;
7383;SDS011;3733;47.994;8.820;2022-10-19T01:39:50;10.50;;;6.80;;
7383;SDS011;3733;47.994;8.820;2022-10-19T01:44:58;7.83;;;5.87;;
7383;SDS011;3733;47.994;8.820;2022-10-19T01:47:36;9.10;;;5.83;;
7383;SDS011;3733;47.994;8.820;2022-10-19T01:50:09;9.20;;;6.00;;
7383;SDS011;3733;47.994;8.820;2022-10-19T01:52:38;10.47;;;5.87;;
7383;SDS011;3733;47.994;8.820;2022-10-19T01:55:06;8.80;;;6.43;;
7383;SDS011;3733;47.994;8.820;2022-10-19T01:57:35;9.90;;;7.83;;
7383;SDS011;3733;47.994;8.820;2022-10-19T02:00:03;15.60;;;6.47;;
7383;SDS011;3733;47.994;8.820;2022-10-19T02:02:32;10.20;;;6.93;;
7383;SDS011;3733;47.994;8.820;2022-10-19T02:05:01;8.50;;;6.40;;
7383;SDS011;3733;47.994;8.820;2022-10-19T02:07:29;6.60;;;5.33;;
7383;SDS011;3733;47.994;8.820;2022-10-19T02:09:55;15.10;;;5.90;;
7383;SDS011;3733;47.994;8.820;2022-10-19T02:12:21;9.77;;;5.90;;
7383;SDS011;3733;47.994;8.820;2022-10-19T02:14:50;7.03;;;5.63;;
7383;SDS011;3733;47.994;8.820;2022-10-19T02:17:26;14.17;;;6.80;;
7383;SDS011;3733;47.994;8.820;2022-10-19T02:19:56;9.53;;;5.93;;
7383;SDS011;3733;47.994;8.820;2022-10-19T02:22:22;10.97;;;6.33;;
7383;SDS011;3733;47.994;8.820;2022-10-19T02:24:48;14.30;;;6.50;;
7383;SDS011;3733;47.994;8.820;2022-10-19T02:27:14;13.43;;;6.60;;
7383;SDS011;3733;47.994;8.820;2022-10-19T02:29:40;11.27;;;7.07;;
7383;SDS011;3733;47.994;8.820;2022-10-19T02:32:06;7.40;;;5.27;;
7383;SDS011;3733;47.994;8.820;2022-10-19T02:34:32;10.30;;;6.70;;
7383;SDS011;3733;47.994;8.820;2022-10-19T02:37:00;10.80;;;5.47;;
7383;SDS011;3733;47.994;8.820;2022-10-19T02:39:26;8.23;;;6.03;;
7383;SDS011;3733;47.994;8.820;2022-10-19T02:44:37;9.57;;;6.07;;
7383;SDS011;3733;47.994;8.820;2022-10-19T02:47:16;8.00;;;6.03;;
7383;SDS011;3733;47.994;8.820;2022-10-19T02:49:44;10.77;;;6.20;;
7383;SDS011;3733;47.994;8.820;2022-10-19T02:52:12;7.83;;;5.90;;
7383;SDS011;3733;47.994;8.820;2022-10-19T02:54:39;7.33;;;5.43;;
7383;SDS011;3733;47.994;8.820;2022-10-19T02:57:20;7.37;;;5.93;;
7383;SDS011;3733;47.994;8.820;2022-10-19T02:59:48;7.57;;;5.90;;
7383;SDS011;3733;47.994;8.820;2022-10-19T03:02:14;10.30;;;6.33;;
7383;SDS011;3733;47.994;8.820;2022-10-19T03:04:41;8.03;;;6.20;;
7383;SDS011;3733;47.994;8.820;2022-10-19T03:07:08;7.47;;;6.00;;
7383;SDS011;3733;47.994;8.820;2022-10-19T03:09:35;8.50;;;6.10;;
7383;SDS011;3733;47.994;8.820;2022-10-19T03:12:01;12.93;;;6.47;;
7383;SDS011;3733;47.994;8.820;2022-10-19T03:14:27;7.23;;;5.63;;
7383;SDS011;3733;47.994;8.820;2022-10-19T03:16:53;8.77;;;5.60;;
7383;SDS011;3733;47.994;8.820;2022-10-19T03:19:18;7.20;;;5.60;;
7383;SDS011;3733;47.994;8.820;2022-10-19T03:21:44;8.23;;;5.60;;
7383;SDS011;3733;47.994;8.820;2022-10-19T03:24:10;11.03;;;5.80;;
7383;SDS011;3733;47.994;8.820;2022-10-19T03:26:35;12.83;;;6.40;;
7383;SDS011;3733;47.994;8.820;2022-10-19T03:29:01;7.13;;;5.30;;
7383;SDS011;3733;47.994;8.820;2022-10-19T03:31:27;15.63;;;6.60;;
7383;SDS011;3733;47.994;8.820;2022-10-19T03:33:52;17.80;;;6.20;;
7383;SDS011;3733;47.994;8.820;2022-10-19T03:36:22;9.90;;;5.80;;
7383;SDS011;3733;47.994;8.820;2022-10-19T03:38:50;8.80;;;6.07;;
7383;SDS011;3733;47.994;8.820;2022-10-19T03:41:18;7.83;;;5.67;;
7383;SDS011;3733;47.994;8.820;2022-10-19T03:43:44;11.57;;;5.90;;
7383;SDS011;3733;47.994;8.820;2022-10-19T03:46:10;6.43;;;5.30;;
7383;SDS011;3733;47.994;8.820;2022-10-19T03:48:35;7.40;;;5.60;;
7383;SDS011;3733;47.994;8.820;2022-10-19T03:51:02;14.77;;;5.90;;
7383;SDS011;3733;47.994;8.820;2022-10-19T03:53:30;14.27;;;6.97;;
7383;SDS011;3733;47.994;8.820;2022-10-19T03:55:59;8.27;;;5.73;;
7383;SDS011;3733;47.994;8.820;2022-10-19T03:58:33;7.80;;;6.37;;
7383;SDS011;3733;47.994;8.820;2022-10-19T04:01:00;9.23;;;5.97;;
7383;SDS011;3733;47.994;8.820;2022-10-19T04:03:26;10.50;;;6.87;;
7383;SDS011;3733;47.994;8.820;2022-10-19T04:05:52;12.30;;;7.00;;
7383;SDS011;3733;47.994;8.820;2022-10-19T04:08:26;10.70;;;6.60;;
7383;SDS011;3733;47.994;8.820;2022-10-19T04:10:52;9.30;;;7.23;;
7383;SDS011;3733;47.994;8.820;2022-10-19T04:13:26;13.73;;;8.13;;
7383;SDS011;3733;47.994;8.820;2022-10-19T04:15:52;19.23;;;8.77;;
7383;SDS011;3733;47.994;8.820;2022-10-19T04:18:17;21.70;;;11.57;;
7383;SDS011;3733;47.994;8.820;2022-10-19T04:20:43;19.00;;;10.50;;
7383;SDS011;3733;47.994;8.820;2022-10-19T04:23:09;18.60;;;11.07;;
7383;SDS011;3733;47.994;8.820;2022-10-19T04:25:34;17.20;;;10.50;;
7383;SDS011;3733;47.994;8.820;2022-10-19T04:28:00;15.23;;;9.00;;
7383;SDS011;3733;47.994;8.820;2022-10-19T04:30:25;13.37;;;9.73;;
7383;SDS011;3733;47.994;8.820;2022-10-19T04:32:51;19.17;;;10.00;;
7383;SDS011;3733;47.994;8.820;2022-10-19T04:35:16;21.03;;;12.97;;
7383;SDS011;3733;47.994;8.820;2022-10-19T04:37:42;23.00;;;13.00;;
7383;SDS011;3733;47.994;8.820;2022-10-19T04:40:08;28.73;;;13.33;;
7383;SDS011;3733;47.994;8.820;2022-10-19T04:42:34;24.70;;;14.20;;
7383;SDS011;3733;47.994;8.820;2022-10-19T04:45:00;21.60;;;12.87;;
7383;SDS011;3733;47.994;8.820;2022-10-19T04:47:27;21.20;;;13.57;;
7383;SDS011;3733;47.994;8.820;2022-10-19T04:49:53;21.87;;;13.70;;
7383;SDS011;3733;47.994;8.820;2022-10-19T04:52:19;21.70;;;12.70;;
7383;SDS011;3733;47.994;8.820;2022-10-19T04:54:45;22.80;;;13.53;;
7383;SDS011;3733;47.994;8.820;2022-10-19T04:57:10;30.53;;;15.53;;
7383;SDS011;3733;47.994;8.820;2022-10-19T04:59:36;21.67;;;13.20;;
7383;SDS011;3733;47.994;8.820;2022-10-19T05:02:02;24.37;;;15.27;;
7383;SDS011;3733;47.994;8.820;2022-10-19T05:04:27;21.33;;;13.47;;
7383;SDS011;3733;47.994;8.820;2022-10-19T05:06:53;22.63;;;12.63;;
7383;SDS011;3733;47.994;8.820;2022-10-19T05:09:19;19.70;;;12.93;;
7383;SDS011;3733;47.994;8.820;2022-10-19T05:11:44;25.03;;;12.83;;
7383;SDS011;3733;47.994;8.820;2022-10-19T05:14:12;22.93;;;13.77;;
7383;SDS011;3733;47.994;8.820;2022-10-19T05:16:38;25.10;;;14.07;;
7383;SDS011;3733;47.994;8.820;2022-10-19T05:19:04;22.60;;;13.83;;
7383;SDS011;3733;47.994;8.820;2022-10-19T05:21:29;23.57;;;12.67;;
7383;SDS011;3733;47.994;8.820;2022-10-19T05:23:55;22.30;;;14.33;;
7383;SDS011;3733;47.994;8.820;2022-10-19T05:26:22;27.17;;;15.20;;
7383;SDS011;3733;47.994;8.820;2022-10-19T05:28:50;35.00;;;15.07;;
7383;SDS011;3733;47.994;8.820;2022-10-19T05:31:21;24.50;;;15.53;;
7383;SDS011;3733;47.994;8.820;2022-10-19T05:33:48;25.20;;;15.67;;
7383;SDS011;3733;47.994;8.820;2022-10-19T05:36:16;38.17;;;14.50;;
7383;SDS011;3733;47.994;8.820;2022-10-19T05:38:56;32.30;;;14.10;;
7383;SDS011;3733;47.994;8.820;2022-10-19T05:41:23;24.00;;;13.10;;
7383;SDS011;3733;47.994;8.820;2022-10-19T05:43:53;22.60;;;12.80;;
7383;SDS011;3733;47.994;8.820;2022-10-19T05:46:20;27.00;;;13.50;;
7383;SDS011;3733;47.994;8.820;2022-10-19T05:48:46;25.13;;;15.00;;
7383;SDS011;3733;47.994;8.820;2022-10-19T05:51:13;26.87;;;14.07;;
7383;SDS011;3733;47.994;8.820;2022-10-19T05:53:43;27.90;;;14.80;;
7383;SDS011;3733;47.994;8.820;2022-10-19T05:56:16;26.50;;;14.30;;
7383;SDS011;3733;47.994;8.820;2022-10-19T05:58:44;23.00;;;14.17;;
7383;SDS011;3733;47.994;8.820;2022-10-19T06:01:10;24.60;;;13.10;;
7383;SDS011;3733;47.994;8.820;2022-10-19T06:03:36;21.03;;;13.10;;
7383;SDS011;3733;47.994;8.820;2022-10-19T06:06:02;23.77;;;12.90;;
7383;SDS011;3733;47.994;8.820;2022-10-19T06:08:28;18.70;;;12.70;;
7383;SDS011;3733;47.994;8.820;2022-10-19T06:11:02;17.87;;;11.83;;
7383;SDS011;3733;47.994;8.820;2022-10-19T06:13:33;20.40;;;12.00;;
7383;SDS011;3733;47.994;8.820;2022-10-19T06:15:59;21.47;;;13.33;;
7383;SDS011;3733;47.994;8.820;2022-10-19T06:18:24;21.43;;;12.57;;
7383;SDS011;3733;47.994;8.820;2022-10-19T06:20:50;27.50;;;12.50;;
7383;SDS011;3733;47.994;8.820;2022-10-19T06:23:17;17.27;;;11.33;;
7383;SDS011;3733;47.994;8.820;2022-10-19T06:25:42;20.20;;;11.50;;
7383;SDS011;3733;47.994;8.820;2022-10-19T06:28:08;18.83;;;11.20;;
7383;SDS011;3733;47.994;8.820;2022-10-19T06:30:38;22.07;;;11.40;;
7383;SDS011;3733;47.994;8.820;2022-10-19T06:33:04;34.60;;;12.80;;
7383;SDS011;3733;47.994;8.820;2022-10-19T06:35:30;22.60;;;12.23;;
7383;SDS011;3733;47.994;8.820;2022-10-19T06:37:56;29.63;;;13.37;;
7383;SDS011;3733;47.994;8.820;2022-10-19T06:40:22;23.30;;;12.73;;
7383;SDS011;3733;47.994;8.820;2022-10-19T06:42:48;19.27;;;12.20;;
7383;SDS011;3733;47.994;8.820;2022-10-19T06:45:14;27.30;;;13.10;;
7383;SDS011;3733;47.994;8.820;2022-10-19T06:47:39;23.63;;;12.13;;
7383;SDS011;3733;47.994;8.820;2022-10-19T06:50:05;26.23;;;12.33;;
7383;SDS011;3733;47.994;8.820;2022-10-19T06:52:32;21.40;;;11.60;;
7383;SDS011;3733;47.994;8.820;2022-10-19T06:54:58;21.03;;;12.20;;
7383;SDS011;3733;47.994;8.820;2022-10-19T06:57:24;24.27;;;12.27;;
7383;SDS011;3733;47.994;8.820;2022-10-19T06:59:49;29.07;;;12.20;;
7383;SDS011;3733;47.994;8.820;2022-10-19T07:02:15;25.20;;;12.87;;
7383;SDS011;3733;47.994;8.820;2022-10-19T07:04:41;22.00;;;12.47;;
7383;SDS011;3733;47.994;8.820;2022-10-19T07:07:06;20.90;;;12.83;;
7383;SDS011;3733;47.994;8.820;2022-10-19T07:09:32;25.50;;;13.53;;
7383;SDS011;3733;47.994;8.820;2022-10-19T07:11:58;22.27;;;11.80;;
7383;SDS011;3733;47.994;8.820;2022-10-19T07:14:23;23.63;;;12.57;;
7383;SDS011;3733;47.994;8.820;2022-10-19T07:16:52;20.80;;;11.60;;
7383;SDS011;3733;47.994;8.820;2022-10-19T07:19:18;21.50;;;12.00;;
7383;SDS011;3733;47.994;8.820;2022-10-19T07:21:43;20.67;;;11.03;;
7383;SDS011;3733;47.994;8.820;2022-10-19T07:24:10;17.93;;;10.47;;
7383;SDS011;3733;47.994;8.820;2022-10-19T07:26:35;20.10;;;11.33;;
7383;SDS011;3733;47.994;8.820;2022-10-19T07:29:01;21.97;;;12.17;;
7383;SDS011;3733;47.994;8.820;2022-10-19T07:31:28;22.30;;;12.00;;
7383;SDS011;3733;47.994;8.820;2022-10-19T07:33:55;20.50;;;11.00;;
7383;SDS011;3733;47.994;8.820;2022-10-19T07:36:23;25.43;;;10.23;;
7383;SDS011;3733;47.994;8.820;2022-10-19T07:38:49;15.60;;;10.40;;
7383;SDS011;3733;47.994;8.820;2022-10-19T07:41:15;21.60;;;10.10;;
7383;SDS011;3733;47.994;8.820;2022-10-19T07:43:43;18.83;;;10.80;;
7383;SDS011;3733;47.994;8.820;2022-10-19T07:46:13;15.93;;;9.53;;
7383;SDS011;3733;47.994;8.820;2022-10-19T07:48:40;14.50;;;8.90;;
7383;SDS011;3733;47.994;8.820;2022-10-19T07:51:07;19.20;;;9.30;;
7383;SDS011;3733;47.994;8.820;2022-10-19T07:53:34;16.83;;;9.90;;
7383;SDS011;3733;47.994;8.820;2022-10-19T07:56:04;17.60;;;9.70;;
7383;SDS011;3733;47.994;8.820;2022-10-19T07:58:40;17.83;;;9.67;;
7383;SDS011;3733;47.994;8.820;2022-10-19T08:01:10;14.97;;;9.30;;
7383;SDS011;3733;47.994;8.820;2022-10-19T08:03:38;14.90;;;9.33;;
7383;SDS011;3733;47.994;8.820;2022-10-19T08:06:05;15.13;;;9.50;;
7383;SDS011;3733;47.994;8.820;2022-10-19T08:08:32;16.47;;;8.80;;
7383;SDS011;3733;47.994;8.820;2022-10-19T08:11:05;12.70;;;8.07;;
7383;SDS011;3733;47.994;8.820;2022-10-19T08:13:34;18.80;;;8.50;;
7383;SDS011;3733;47.994;8.820;2022-10-19T08:16:00;15.97;;;8.80;;
7383;SDS011;3733;47.994;8.820;2022-10-19T08:18:26;15.73;;;8.73;;
7383;SDS011;3733;47.994;8.820;2022-10-19T08:20:51;13.17;;;7.90;;
7383;SDS011;3733;47.994;8.820;2022-10-19T08:23:17;17.30;;;8.33;;
7383;SDS011;3733;47.994;8.820;2022-10-19T08:25:42;12.50;;;7.23;;
7383;SDS011;3733;47.994;8.820;2022-10-19T08:28:08;20.40;;;9.00;;
7383;SDS011;3733;47.994;8.820;2022-10-19T08:30:34;14.83;;;8.47;;
7383;SDS011;3733;47.994;8.820;2022-10-19T08:33:00;19.33;;;8.00;;
7383;SDS011;3733;47.994;8.820;2022-10-19T08:35:29;13.13;;;8.50;;
7383;SDS011;3733;47.994;8.820;2022-10-19T08:37:55;11.67;;;6.90;;
7383;SDS011;3733;47.994;8.820;2022-10-19T08:40:23;12.93;;;7.90;;
7383;SDS011;3733;47.994;8.820;2022-10-19T08:42:53;15.80;;;7.73;;
7383;SDS011;3733;47.994;8.820;2022-10-19T08:48:20;15.47;;;7.63;;
7383;SDS011;3733;47.994;8.820;2022-10-19T08:50:54;15.17;;;7.83;;
7383;SDS011;3733;47.994;8.820;2022-10-19T09:04:16;11.63;;;6.73;;
7383;SDS011;3733;47.994;8.820;2022-10-19T09:06:58;14.17;;;6.80;;
7383;SDS011;3733;47.994;8.820;2022-10-19T09:09:45;17.10;;;7.10;;
7383;SDS011;3733;47.994;8.820;2022-10-19T09:12:16;12.40;;;7.50;;
7383;SDS011;3733;47.994;8.820;2022-10-19T09:17:25;10.40;;;7.50;;
7383;SDS011;3733;47.994;8.820;2022-10-19T09:19:51;15.33;;;7.93;;
7383;SDS011;3733;47.994;8.820;2022-10-19T09:22:25;12.53;;;6.60;;
7383;SDS011;3733;47.994;8.820;2022-10-19T09:24:59;11.07;;;7.10;;
7383;SDS011;3733;47.994;8.820;2022-10-19T09:27:34;9.73;;;7.40;;
7383;SDS011;3733;47.994;8.820;2022-10-19T09:30:05;10.17;;;6.70;;
7383;SDS011;3733;47.994;8.820;2022-10-19T09:32:39;8.67;;;6.30;;
7383;SDS011;3733;47.994;8.820;2022-10-19T09:37:46;12.00;;;7.63;;
7383;SDS011;3733;47.994;8.820;2022-10-19T09:40:19;8.87;;;6.60;;
7383;SDS011;3733;47.994;8.820;2022-10-19T09:42:47;12.80;;;6.63;;
7383;SDS011;3733;47.994;8.820;2022-10-19T09:50:57;12.67;;;7.20;;
7383;SDS011;3733;47.994;8.820;2022-10-19T09:53:25;8.90;;;6.43;;
7383;SDS011;3733;47.994;8.820;2022-10-19T09:58:27;8.07;;;5.87;;
7383;SDS011;3733;47.994;8.820;2022-10-19T10:00:54;15.67;;;6.60;;
7383;SDS011;3733;47.994;8.820;2022-10-19T10:06:09;10.67;;;6.30;;
7383;SDS011;3733;47.994;8.820;2022-10-19T10:08:38;11.73;;;6.80;;
7383;SDS011;3733;47.994;8.820;2022-10-19T10:11:26;9.33;;;6.63;;
7383;SDS011;3733;47.994;8.820;2022-10-19T10:13:54;9.93;;;6.10;;
7383;SDS011;3733;47.994;8.820;2022-10-19T10:16:22;8.20;;;5.60;;
7383;SDS011;3733;47.994;8.820;2022-10-19T10:18:54;10.67;;;6.80;;
7383;SDS011;3733;47.994;8.820;2022-10-19T10:21:24;10.93;;;6.57;;
7383;SDS011;3733;47.994;8.820;2022-10-19T10:26:39;7.80;;;5.83;;
7383;SDS011;3733;47.994;8.820;2022-10-19T10:32:01;8.87;;;6.10;;
7383;SDS011;3733;47.994;8.820;2022-10-19T10:34:36;7.13;;;5.60;;
7383;SDS011;3733;47.994;8.820;2022-10-19T10:37:27;7.97;;;5.80;;
7383;SDS011;3733;47.994;8.820;2022-10-19T10:39:57;12.30;;;6.50;;
7383;SDS011;3733;47.994;8.820;2022-10-19T10:42:28;9.53;;;5.87;;
7383;SDS011;3733;47.994;8.820;2022-10-19T10:45:05;13.93;;;5.40;;
7383;SDS011;3733;47.994;8.820;2022-10-19T10:47:56;7.73;;;5.07;;
7383;SDS011;3733;47.994;8.820;2022-10-19T10:50:36;12.33;;;5.50;;
7383;SDS011;3733;47.994;8.820;2022-10-19T10:53:05;9.30;;;6.07;;
7383;SDS011;3733;47.994;8.820;2022-10-19T10:55:55;10.03;;;5.37;;
7383;SDS011;3733;47.994;8.820;2022-10-19T10:58:26;7.57;;;5.73;;
7383;SDS011;3733;47.994;8.820;2022-10-19T11:01:00;5.90;;;5.10;;
7383;SDS011;3733;47.994;8.820;2022-10-19T11:03:31;8.13;;;5.00;;
7383;SDS011;3733;47.994;8.820;2022-10-19T11:05:59;6.40;;;4.93;;
7383;SDS011;3733;47.994;8.820;2022-10-19T11:08:35;6.63;;;4.83;;
7383;SDS011;3733;47.994;8.820;2022-10-19T11:11:19;9.33;;;5.40;;
7383;SDS011;3733;47.994;8.820;2022-10-19T11:16:32;9.10;;;4.83;;
7383;SDS011;3733;47.994;8.820;2022-10-19T11:32:41;7.23;;;4.80;;
7383;SDS011;3733;47.994;8.820;2022-10-19T11:35:21;5.30;;;4.07;;
7383;SDS011;3733;47.994;8.820;2022-10-19T11:40:39;6.03;;;4.20;;
7383;SDS011;3733;47.994;8.820;2022-10-19T11:43:15;8.83;;;4.00;;
7383;SDS011;3733;47.994;8.820;2022-10-19T11:46:09;4.07;;;3.67;;
7383;SDS011;3733;47.994;8.820;2022-10-19T11:48:58;4.93;;;3.83;;
7383;SDS011;3733;47.994;8.820;2022-10-19T12:00:13;3.72;;;3.38;;
7383;SDS011;3733;47.994;8.820;2022-10-19T12:13:53;8.23;;;4.07;;
7383;SDS011;3733;47.994;8.820;2022-10-19T12:16:26;5.80;;;4.20;;
7383;SDS011;3733;47.994;8.820;2022-10-19T12:18:59;6.75;;;3.70;;
7383;SDS011;3733;47.994;8.820;2022-10-19T12:24:24;5.13;;;3.30;;
7383;SDS011;3733;47.994;8.820;2022-10-19T12:26:53;4.63;;;3.35;;
7383;SDS011;3733;47.994;8.820;2022-10-19T12:29:29;3.78;;;2.85;;
7383;SDS011;3733;47.994;8.820;2022-10-19T12:31:58;3.47;;;2.85;;
7383;SDS011;3733;47.994;8.820;2022-10-19T12:42:52;4.60;;;2.92;;
7383;SDS011;3733;47.994;8.820;2022-10-19T12:45:30;4.40;;;4.00;;
7383;SDS011;3733;47.994;8.820;2022-10-19T12:53:27;5.43;;;4.05;;
7383;SDS011;3733;47.994;8.820;2022-10-19T13:01:22;5.47;;;4.25;;
7383;SDS011;3733;47.994;8.820;2022-10-19T13:04:14;7.17;;;4.30;;
7383;SDS011;3733;47.994;8.820;2022-10-19T13:06:41;9.23;;;4.93;;
7383;SDS011;3733;47.994;8.820;2022-10-19T13:09:19;6.87;;;4.70;;
7383;SDS011;3733;47.994;8.820;2022-10-19T13:22:44;9.80;;;5.50;;
7383;SDS011;3733;47.994;8.820;2022-10-19T13:25:26;7.10;;;4.70;;
7383;SDS011;3733;47.994;8.820;2022-10-19T13:38:31;11.43;;;6.60;;
7383;SDS011;3733;47.994;8.820;2022-10-19T13:46:21;8.23;;;5.90;;
7383;SDS011;3733;47.994;8.820;2022-10-19T14:02:57;15.13;;;7.33;;
7383;SDS011;3733;47.994;8.820;2022-10-19T14:08:47;11.60;;;7.63;;
7383;SDS011;3733;47.994;8.820;2022-10-19T14:11:35;10.63;;;7.03;;
7383;SDS011;3733;47.994;8.820;2022-10-19T14:14:11;10.23;;;6.57;;
7383;SDS011;3733;47.994;8.820;2022-10-19T14:16:55;12.43;;;6.93;;
7383;SDS011;3733;47.994;8.820;2022-10-19T14:19:48;10.80;;;6.83;;
7383;SDS011;3733;47.994;8.820;2022-10-19T14:25:21;14.00;;;6.80;;
7383;SDS011;3733;47.994;8.820;2022-10-19T14:27:58;14.30;;;7.53;;
7383;SDS011;3733;47.994;8.820;2022-10-19T14:30:29;14.30;;;7.27;;
7383;SDS011;3733;47.994;8.820;2022-10-19T14:32:58;13.87;;;7.00;;
7383;SDS011;3733;47.994;8.820;2022-10-19T14:37:52;10.40;;;7.07;;
7383;SDS011;3733;47.994;8.820;2022-10-19T14:42:44;10.87;;;6.80;;
7383;SDS011;3733;47.994;8.820;2022-10-19T14:48:00;13.37;;;8.10;;
7383;SDS011;3733;47.994;8.820;2022-10-19T14:53:08;12.13;;;7.40;;
7383;SDS011;3733;47.994;8.820;2022-10-19T14:55:45;11.80;;;7.60;;
7383;SDS011;3733;47.994;8.820;2022-10-19T14:58:18;15.90;;;7.80;;
7383;SDS011;3733;47.994;8.820;2022-10-19T15:00:46;15.90;;;9.10;;
7383;SDS011;3733;47.994;8.820;2022-10-19T15:03:25;13.67;;;8.20;;
7383;SDS011;3733;47.994;8.820;2022-10-19T15:05:58;10.77;;;7.60;;
7383;SDS011;3733;47.994;8.820;2022-10-19T15:08:40;11.90;;;8.80;;
7383;SDS011;3733;47.994;8.820;2022-10-19T15:11:59;22.43;;;11.33;;
7383;SDS011;3733;47.994;8.820;2022-10-19T15:14:13;20.00;;;11.13;;
7383;SDS011;3733;47.994;8.820;2022-10-19T15:19:17;17.37;;;10.37;;
7383;SDS011;3733;47.994;8.820;2022-10-19T15:24:36;16.93;;;9.40;;
7383;SDS011;3733;47.994;8.820;2022-10-19T15:27:09;19.00;;;10.00;;
7383;SDS011;3733;47.994;8.820;2022-10-19T15:29:52;19.80;;;11.83;;
7383;SDS011;3733;47.994;8.820;2022-10-19T15:32:33;16.97;;;11.37;;
7383;SDS011;3733;47.994;8.820;2022-10-19T15:38:00;32.00;;;14.50;;
7383;SDS011;3733;47.994;8.820;2022-10-19T15:40:53;29.80;;;13.43;;
7383;SDS011;3733;47.994;8.820;2022-10-19T15:45:57;20.17;;;11.23;;
7383;SDS011;3733;47.994;8.820;2022-10-19T15:48:25;14.77;;;9.43;;
7383;SDS011;3733;47.994;8.820;2022-10-19T15:50:53;24.03;;;9.03;;
7383;SDS011;3733;47.994;8.820;2022-10-19T15:53:20;20.83;;;10.40;;
7383;SDS011;3733;47.994;8.820;2022-10-19T15:55:47;13.57;;;9.10;;
7383;SDS011;3733;47.994;8.820;2022-10-19T15:58:13;14.37;;;8.43;;
7383;SDS011;3733;47.994;8.820;2022-10-19T16:00:39;13.40;;;8.90;;
7383;SDS011;3733;47.994;8.820;2022-10-19T16:03:05;14.77;;;8.77;;
7383;SDS011;3733;47.994;8.820;2022-10-19T16:05:32;14.10;;;8.80;;
7383;SDS011;3733;47.994;8.820;2022-10-19T16:07:59;11.80;;;7.67;;
7383;SDS011;3733;47.994;8.820;2022-10-19T16:10:25;13.70;;;9.33;;
7383;SDS011;3733;47.994;8.820;2022-10-19T16:12:52;10.47;;;7.80;;
7383;SDS011;3733;47.994;8.820;2022-10-19T16:15:19;10.90;;;7.70;;
7383;SDS011;3733;47.994;8.820;2022-10-19T16:17:50;11.27;;;7.67;;
7383;SDS011;3733;47.994;8.820;2022-10-19T16:20:22;11.60;;;7.70;;
7383;SDS011;3733;47.994;8.820;2022-10-19T16:22:49;17.37;;;8.93;;
7383;SDS011;3733;47.994;8.820;2022-10-19T16:25:15;12.60;;;8.73;;
7383;SDS011;3733;47.994;8.820;2022-10-19T16:27:40;12.60;;;7.50;;
7383;SDS011;3733;47.994;8.820;2022-10-19T16:30:06;9.90;;;7.53;;
7383;SDS011;3733;47.994;8.820;2022-10-19T16:32:32;16.23;;;8.80;;
7383;SDS011;3733;47.994;8.820;2022-10-19T16:34:58;12.13;;;7.80;;
7383;SDS011;3733;47.994;8.820;2022-10-19T16:37:24;13.77;;;8.20;;
7383;SDS011;3733;47.994;8.820;2022-10-19T16:39:49;13.93;;;9.13;;
7383;SDS011;3733;47.994;8.820;2022-10-19T16:42:15;15.00;;;8.40;;
7383;SDS011;3733;47.994;8.820;2022-10-19T16:44:41;14.07;;;8.00;;
7383;SDS011;3733;47.994;8.820;2022-10-19T16:47:06;12.27;;;8.40;;
7383;SDS011;3733;47.994;8.820;2022-10-19T16:49:32;13.57;;;7.47;;
7383;SDS011;3733;47.994;8.820;2022-10-19T16:51:57;11.90;;;7.70;;
7383;SDS011;3733;47.994;8.820;2022-10-19T16:54:25;12.67;;;8.67;;
7383;SDS011;3733;47.994;8.820;2022-10-19T16:56:53;12.43;;;8.73;;
7383;SDS011;3733;47.994;8.820;2022-10-19T16:59:19;15.23;;;9.50;;
7383;SDS011;3733;47.994;8.820;2022-10-19T17:01:45;13.20;;;8.13;;
7383;SDS011;3733;47.994;8.820;2022-10-19T17:04:12;12.77;;;8.43;;
7383;SDS011;3733;47.994;8.820;2022-10-19T17:06:38;12.90;;;8.70;;
7383;SDS011;3733;47.994;8.820;2022-10-19T17:09:04;14.07;;;8.50;;
7383;SDS011;3733;47.994;8.820;2022-10-19T17:11:34;11.90;;;8.10;;
7383;SDS011;3733;47.994;8.820;2022-10-19T17:14:04;12.97;;;8.60;;
7383;SDS011;3733;47.994;8.820;2022-10-19T17:16:32;12.30;;;7.77;;
7383;SDS011;3733;47.994;8.820;2022-10-19T17:19:00;18.83;;;8.90;;
7383;SDS011;3733;47.994;8.820;2022-10-19T17:21:28;10.83;;;7.37;;
7383;SDS011;3733;47.994;8.820;2022-10-19T17:23:57;13.80;;;8.90;;
7383;SDS011;3733;47.994;8.820;2022-10-19T17:26:25;11.33;;;8.30;;
7383;SDS011;3733;47.994;8.820;2022-10-19T17:28:59;12.50;;;8.37;;
7383;SDS011;3733;47.994;8.820;2022-10-19T17:31:25;12.50;;;9.30;;
7383;SDS011;3733;47.994;8.820;2022-10-19T17:33:52;12.70;;;9.10;;
7383;SDS011;3733;47.994;8.820;2022-10-19T17:36:19;13.90;;;8.93;;
7383;SDS011;3733;47.994;8.820;2022-10-19T17:38:47;12.60;;;8.70;;
7383;SDS011;3733;47.994;8.820;2022-10-19T17:41:14;15.23;;;9.07;;
7383;SDS011;3733;47.994;8.820;2022-10-19T17:43:41;14.80;;;8.97;;
7383;SDS011;3733;47.994;8.820;2022-10-19T17:46:09;15.87;;;9.13;;
7383;SDS011;3733;47.994;8.820;2022-10-19T17:48:36;17.33;;;9.10;;
7383;SDS011;3733;47.994;8.820;2022-10-19T17:51:04;17.00;;;8.27;;
7383;SDS011;3733;47.994;8.820;2022-10-19T17:53:32;17.50;;;7.97;;
7383;SDS011;3733;47.994;8.820;2022-10-19T17:55:59;17.17;;;9.20;;
7383;SDS011;3733;47.994;8.820;2022-10-19T17:58:29;14.40;;;8.50;;
7383;SDS011;3733;47.994;8.820;2022-10-19T18:00:56;14.47;;;8.73;;
7383;SDS011;3733;47.994;8.820;2022-10-19T18:03:23;11.90;;;8.20;;
7383;SDS011;3733;47.994;8.820;2022-10-19T18:05:54;14.30;;;8.93;;
7383;SDS011;3733;47.994;8.820;2022-10-19T18:08:24;10.90;;;8.40;;
7383;SDS011;3733;47.994;8.820;2022-10-19T18:11:01;12.33;;;8.10;;
7383;SDS011;3733;47.994;8.820;2022-10-19T18:13:29;10.50;;;7.20;;
7383;SDS011;3733;47.994;8.820;2022-10-19T18:16:06;10.67;;;8.00;;
7383;SDS011;3733;47.994;8.820;2022-10-19T18:18:34;13.57;;;9.07;;
7383;SDS011;3733;47.994;8.820;2022-10-19T18:21:05;11.43;;;7.80;;
7383;SDS011;3733;47.994;8.820;2022-10-19T18:23:32;24.73;;;9.27;;
7383;SDS011;3733;47.994;8.820;2022-10-19T18:26:01;14.53;;;8.90;;